Time;durP1;ratioP1;P1;durP2;ratioP2;P2;SDS_P1;SDS_P2;PMS_P1;PMS_P2;Temp;Humidity;BMP_temperature;BMP_pressure;BME280_temperature;BME280_humidity;BME280_pressure;Samples;Min_cycle;Max_cycle;Signal;HPM_P1;HPM_P2
2020/12/10 00:01:10;;;;;;;6.45;4.18;;;;;;;;;;5123782;27;20083;-62
2020/12/10 00:03:36;;;;;;;5.65;4.18;;;;;;;;;;5123071;27;20026;-62
2020/12/10 00:06:03;;;;;;;4.78;3.72;;;;;;;;;;5122686;27;20123;-61
2020/12/10 00:08:29;;;;;;;4.03;3.28;;;;;;;;;;5120304;27;20496;-62
2020/12/10 00:10:55;;;;;;;4.30;3.90;;;;;;;;;;5118722;27;20038;-62
2020/12/10 00:13:21;;;;;;;5.93;4.38;;;;;;;;;;5122289;27;20019;-62
2020/12/10 00:15:47;;;;;;;7.07;4.10;;;;;;;;;;5124403;27;20385;-61
2020/12/10 00:18:13;;;;;;;4.22;3.58;;;;;;;;;;5121725;27;20027;-61
2020/12/10 00:20:39;;;;;;;5.55;3.78;;;;;;;;;;5118579;27;20061;-62
2020/12/10 00:23:05;;;;;;;3.80;3.45;;;;;;;;;;5120448;27;20080;-62
2020/12/10 00:25:31;;;;;;;8.23;4.10;;;;;;;;;;5124790;27;20023;-61
2020/12/10 00:27:57;;;;;;;4.15;3.75;;;;;;;;;;5120041;27;20119;-62
2020/12/10 00:30:23;;;;;;;4.35;3.58;;;;;;;;;;5121116;27;20050;-62
2020/12/10 00:32:49;;;;;;;6.68;3.55;;;;;;;;;;5124686;27;20515;-62
2020/12/10 00:35:15;;;;;;;5.60;4.15;;;;;;;;;;5121027;27;20110;-62
2020/12/10 00:37:41;;;;;;;5.43;4.38;;;;;;;;;;5126362;27;20126;-61
2020/12/10 00:40:08;;;;;;;5.13;3.85;;;;;;;;;;5120385;27;20134;-62
2020/12/10 00:42:34;;;;;;;5.28;3.80;;;;;;;;;;5125113;27;20034;-62
2020/12/10 00:45:00;;;;;;;5.45;4.30;;;;;;;;;;5121702;27;20019;-62
2020/12/10 00:47:26;;;;;;;4.80;3.30;;;;;;;;;;5126836;27;20027;-61
2020/12/10 00:49:52;;;;;;;3.13;2.80;;;;;;;;;;5127768;27;20051;-62
2020/12/10 00:52:23;;;;;;;3.88;2.92;;;;;;;;;;5103588;27;20061;-61
2020/12/10 00:54:49;;;;;;;4.47;3.28;;;;;;;;;;5125473;27;20047;-62
2020/12/10 00:57:15;;;;;;;5.00;3.13;;;;;;;;;;5123270;27;20086;-62
2020/12/10 00:59:41;;;;;;;4.43;3.73;;;;;;;;;;5123047;27;20046;-62
2020/12/10 01:02:07;;;;;;;5.43;3.78;;;;;;;;;;5103690;28;20024;-62
2020/12/10 01:04:34;;;;;;;4.07;3.67;;;;;;;;;;5123180;27;20389;-61
2020/12/10 01:07:00;;;;;;;4.50;3.63;;;;;;;;;;5120377;27;20035;-62
2020/12/10 01:09:26;;;;;;;4.10;3.70;;;;;;;;;;5124751;27;20019;-61
2020/12/10 01:11:52;;;;;;;5.63;4.75;;;;;;;;;;5122733;27;20053;-61
2020/12/10 01:14:18;;;;;;;8.02;5.03;;;;;;;;;;5108835;27;20019;-61
2020/12/10 01:16:45;;;;;;;4.95;4.38;;;;;;;;;;5119619;27;20381;-61
2020/12/10 01:19:11;;;;;;;5.95;4.53;;;;;;;;;;5125165;27;20114;-61
2020/12/10 01:21:37;;;;;;;10.20;5.80;;;;;;;;;;5123660;27;20125;-60
2020/12/10 01:24:04;;;;;;;7.15;4.90;;;;;;;;;;5101164;27;20126;-60
2020/12/10 01:26:33;;;;;;;6.38;5.28;;;;;;;;;;5126605;27;20211;-61
2020/12/10 01:28:59;;;;;;;7.15;5.45;;;;;;;;;;5125504;27;20058;-61
2020/12/10 01:31:25;;;;;;;8.95;5.50;;;;;;;;;;5106886;27;20022;-61
2020/12/10 01:33:51;;;;;;;8.38;6.20;;;;;;;;;;5121427;27;20224;-61
2020/12/10 01:36:18;;;;;;;7.15;6.43;;;;;;;;;;5120518;27;20030;-61
2020/12/10 01:38:44;;;;;;;9.70;6.50;;;;;;;;;;5124045;27;20423;-61
2020/12/10 01:41:11;;;;;;;7.68;6.28;;;;;;;;;;5118460;27;20031;-61
2020/12/10 01:43:37;;;;;;;8.75;7.40;;;;;;;;;;5115906;27;20435;-61
2020/12/10 01:46:03;;;;;;;10.25;7.30;;;;;;;;;;5120559;27;20027;-61
2020/12/10 01:48:30;;;;;;;11.17;7.47;;;;;;;;;;5124741;27;20488;-61
2020/12/10 01:50:56;;;;;;;10.75;7.47;;;;;;;;;;5127013;27;20027;-61
2020/12/10 01:53:22;;;;;;;10.10;7.57;;;;;;;;;;5121846;27;20063;-62
2020/12/10 01:55:48;;;;;;;10.98;7.55;;;;;;;;;;5121770;27;20505;-62
2020/12/10 01:58:14;;;;;;;9.48;7.25;;;;;;;;;;5118978;27;20027;-61
2020/12/10 02:00:40;;;;;;;9.25;7.40;;;;;;;;;;5126555;27;20449;-61
2020/12/10 02:03:06;;;;;;;11.07;5.95;;;;;;;;;;5119306;27;20055;-61
2020/12/10 02:05:32;;;;;;;10.32;6.60;;;;;;;;;;5122817;27;20142;-61
2020/12/10 02:07:58;;;;;;;7.95;6.10;;;;;;;;;;5120201;27;20031;-61
2020/12/10 02:10:24;;;;;;;6.63;5.33;;;;;;;;;;5118237;27;20544;-61
2020/12/10 02:12:50;;;;;;;7.97;6.05;;;;;;;;;;5117686;27;20028;-60
2020/12/10 02:15:17;;;;;;;8.10;5.80;;;;;;;;;;5118691;27;20484;-61
2020/12/10 02:17:43;;;;;;;9.05;5.97;;;;;;;;;;5129287;27;20020;-61
2020/12/10 02:20:09;;;;;;;5.20;4.47;;;;;;;;;;5121608;27;20026;-61
2020/12/10 02:22:35;;;;;;;6.57;5.05;;;;;;;;;;5117326;27;20110;-61
2020/12/10 02:25:01;;;;;;;5.68;4.82;;;;;;;;;;5124866;27;20102;-60
2020/12/10 02:27:27;;;;;;;7.82;5.90;;;;;;;;;;5128139;27;20395;-60
2020/12/10 02:29:53;;;;;;;7.05;5.28;;;;;;;;;;5125794;27;20106;-61
2020/12/10 02:32:19;;;;;;;8.18;5.45;;;;;;;;;;5120562;27;20015;-61
2020/12/10 02:34:45;;;;;;;6.30;5.18;;;;;;;;;;5121980;27;20480;-60
2020/12/10 02:37:11;;;;;;;6.38;5.53;;;;;;;;;;5128494;27;20024;-61
2020/12/10 02:39:37;;;;;;;7.28;5.32;;;;;;;;;;5125099;27;20030;-61
2020/12/10 02:42:03;;;;;;;8.38;5.95;;;;;;;;;;5121101;27;20027;-59
2020/12/10 02:44:29;;;;;;;8.93;5.93;;;;;;;;;;5125281;27;20019;-60
2020/12/10 02:46:55;;;;;;;8.30;5.00;;;;;;;;;;5120712;27;20051;-60
2020/12/10 02:49:21;;;;;;;8.57;5.70;;;;;;;;;;5109423;27;20387;-61
2020/12/10 02:51:47;;;;;;;8.30;5.75;;;;;;;;;;5128686;27;20069;-59
2020/12/10 02:54:13;;;;;;;7.20;5.13;;;;;;;;;;5125851;27;20024;-60
2020/12/10 02:56:39;;;;;;;8.05;5.18;;;;;;;;;;5122451;27;20027;-61
2020/12/10 02:59:05;;;;;;;7.43;5.63;;;;;;;;;;5130365;27;20464;-60
2020/12/10 03:01:35;;;;;;;7.43;5.95;;;;;;;;;;5121695;27;20147;-60
2020/12/10 03:04:01;;;;;;;7.40;5.70;;;;;;;;;;5125421;27;20027;-60
2020/12/10 03:06:27;;;;;;;4.97;4.00;;;;;;;;;;5121848;27;20034;-60
2020/12/10 03:08:53;;;;;;;5.05;4.55;;;;;;;;;;5130057;27;20400;-59
2020/12/10 03:11:19;;;;;;;8.55;5.53;;;;;;;;;;5120746;27;20052;-60
2020/12/10 03:13:45;;;;;;;7.43;5.35;;;;;;;;;;5121012;27;20036;-60
2020/12/10 03:16:11;;;;;;;8.95;5.32;;;;;;;;;;5120016;27;20031;-60
2020/12/10 03:18:37;;;;;;;8.70;5.70;;;;;;;;;;5123797;27;20027;-60
2020/12/10 03:21:03;;;;;;;7.95;6.07;;;;;;;;;;5103165;28;20063;-60
2020/12/10 03:23:29;;;;;;;6.77;5.13;;;;;;;;;;5123162;27;20051;-60
2020/12/10 03:25:55;;;;;;;8.55;5.63;;;;;;;;;;5107063;27;20064;-59
2020/12/10 03:28:21;;;;;;;7.75;5.80;;;;;;;;;;5126704;27;20035;-61
2020/12/10 03:30:47;;;;;;;7.65;5.93;;;;;;;;;;5122164;27;20062;-60
2020/12/10 03:33:13;;;;;;;8.80;6.18;;;;;;;;;;5103449;27;20372;-60
2020/12/10 03:35:39;;;;;;;7.55;5.63;;;;;;;;;;5105413;27;20042;-60
2020/12/10 03:38:05;;;;;;;8.02;6.22;;;;;;;;;;5121021;27;20034;-60
2020/12/10 03:40:31;;;;;;;7.93;6.47;;;;;;;;;;5124334;27;20237;-61
2020/12/10 03:42:57;;;;;;;9.40;7.25;;;;;;;;;;5122904;27;20027;-61
2020/12/10 03:45:23;;;;;;;10.88;7.85;;;;;;;;;;5129360;27;20079;-60
2020/12/10 03:47:49;;;;;;;9.27;7.65;;;;;;;;;;5118885;27;20651;-61
2020/12/10 03:50:15;;;;;;;11.05;8.07;;;;;;;;;;5123671;27;20028;-61
2020/12/10 03:52:41;;;;;;;12.05;9.32;;;;;;;;;;5121342;27;20138;-61
2020/12/10 03:55:07;;;;;;;12.13;9.68;;;;;;;;;;5126554;27;20126;-62
2020/12/10 03:57:33;;;;;;;14.70;11.27;;;;;;;;;;5125449;27;20031;-61
2020/12/10 03:59:59;;;;;;;17.02;12.60;;;;;;;;;;5120531;27;20050;-61
2020/12/10 04:02:25;;;;;;;17.00;12.75;;;;;;;;;;5125394;27;20062;-61
2020/12/10 04:04:51;;;;;;;14.48;11.35;;;;;;;;;;5115440;27;20051;-61
2020/12/10 04:07:17;;;;;;;14.38;10.77;;;;;;;;;;5123185;27;20544;-61
2020/12/10 04:09:43;;;;;;;13.52;11.73;;;;;;;;;;5120056;27;20051;-61
2020/12/10 04:12:10;;;;;;;15.00;11.25;;;;;;;;;;5121158;27;20098;-61
2020/12/10 04:14:36;;;;;;;15.20;11.80;;;;;;;;;;5123994;27;20032;-61
2020/12/10 04:17:02;;;;;;;14.45;11.20;;;;;;;;;;5121582;27;20494;-61
2020/12/10 04:19:28;;;;;;;14.45;11.32;;;;;;;;;;5122187;27;20023;-61
2020/12/10 04:21:54;;;;;;;14.23;11.65;;;;;;;;;;5125674;27;20129;-61
2020/12/10 04:24:20;;;;;;;14.40;12.07;;;;;;;;;;5115909;27;20389;-61
2020/12/10 04:26:46;;;;;;;16.17;11.20;;;;;;;;;;5124644;27;20069;-61
2020/12/10 04:29:13;;;;;;;15.00;11.13;;;;;;;;;;5116701;27;20801;-61
2020/12/10 04:31:41;;;;;;;15.30;11.70;;;;;;;;;;5125243;27;20106;-61
2020/12/10 04:34:07;;;;;;;18.83;13.37;;;;;;;;;;5128121;27;20039;-61
2020/12/10 04:36:33;;;;;;;14.50;10.70;;;;;;;;;;5120451;27;20028;-61
2020/12/10 04:38:59;;;;;;;15.73;11.07;;;;;;;;;;5126440;27;20083;-61
2020/12/10 04:41:27;;;;;;;13.30;10.60;;;;;;;;;;5123261;27;20027;-61
2020/12/10 04:43:53;;;;;;;15.37;12.27;;;;;;;;;;5125080;27;20023;-61
2020/12/10 04:46:20;;;;;;;13.73;11.60;;;;;;;;;;5125663;27;20023;-61
2020/12/10 04:48:46;;;;;;;14.87;11.30;;;;;;;;;;5124905;27;20047;-61
2020/12/10 04:51:12;;;;;;;14.27;10.77;;;;;;;;;;5121439;27;20027;-61
2020/12/10 04:53:38;;;;;;;13.40;10.87;;;;;;;;;;5131194;27;20061;-61
2020/12/10 04:56:05;;;;;;;12.17;9.77;;;;;;;;;;5119801;27;20092;-61
2020/12/10 04:58:31;;;;;;;14.83;11.53;;;;;;;;;;5124460;27;20763;-61
2020/12/10 05:00:59;;;;;;;14.20;10.87;;;;;;;;;;5123053;27;20046;-61
2020/12/10 05:03:26;;;;;;;12.95;10.68;;;;;;;;;;5121007;27;20027;-61
2020/12/10 05:09:06;;;;;;;14.03;9.97;;;;;;;;;;5125724;27;20039;-61
2020/12/10 05:11:33;;;;;;;13.10;10.15;;;;;;;;;;5125511;27;20027;-61
2020/12/10 05:13:59;;;;;;;13.98;11.10;;;;;;;;;;5119673;27;20026;-60
2020/12/10 05:16:25;;;;;;;14.27;10.70;;;;;;;;;;5119297;27;20027;-61
2020/12/10 05:18:52;;;;;;;16.20;10.68;;;;;;;;;;5126829;27;20030;-61
2020/12/10 05:21:18;;;;;;;15.25;12.20;;;;;;;;;;5121629;27;20031;-61
2020/12/10 05:23:45;;;;;;;15.93;11.30;;;;;;;;;;5120209;27;20366;-61
2020/12/10 05:26:11;;;;;;;14.77;11.00;;;;;;;;;;5121403;27;20019;-61
2020/12/10 05:28:45;;;;;;;15.52;11.30;;;;;;;;;;5123560;27;20031;-61
2020/12/10 05:31:15;;;;;;;12.15;10.35;;;;;;;;;;5122848;27;20023;-61
2020/12/10 05:34:08;;;;;;;13.98;10.98;;;;;;;;;;5115708;27;20229;-62
2020/12/10 05:36:34;;;;;;;14.23;11.87;;;;;;;;;;5115370;27;20039;-61
2020/12/10 05:39:08;;;;;;;14.13;10.93;;;;;;;;;;5114222;27;20031;-62
2020/12/10 05:41:43;;;;;;;17.02;11.90;;;;;;;;;;5120581;27;20034;-62
2020/12/10 05:44:22;;;;;;;13.37;10.90;;;;;;;;;;5126099;27;20072;-62
2020/12/10 05:46:51;;;;;;;15.93;11.63;;;;;;;;;;5126113;27;20058;-62
2020/12/10 05:49:17;;;;;;;15.23;10.60;;;;;;;;;;5120375;27;20034;-61
2020/12/10 05:51:47;;;;;;;15.80;11.73;;;;;;;;;;5134221;27;20023;-61
2020/12/10 05:54:15;;;;;;;14.52;10.40;;;;;;;;;;5124546;27;20093;-62
2020/12/10 05:56:47;;;;;;;14.07;11.00;;;;;;;;;;5123952;27;20051;-61
2020/12/10 05:59:13;;;;;;;12.45;10.10;;;;;;;;;;5127133;27;20054;-61
2020/12/10 06:01:39;;;;;;;13.45;10.32;;;;;;;;;;5127705;27;20071;-62
2020/12/10 06:04:05;;;;;;;13.27;9.60;;;;;;;;;;5122684;27;20068;-61
2020/12/10 06:06:32;;;;;;;15.02;11.30;;;;;;;;;;5123930;27;20055;-61
2020/12/10 06:09:00;;;;;;;14.05;11.52;;;;;;;;;;5128366;27;20118;-61
2020/12/10 06:11:27;;;;;;;14.75;10.98;;;;;;;;;;5127865;27;20391;-62
2020/12/10 06:13:59;;;;;;;13.65;10.60;;;;;;;;;;5123536;27;20035;-62
2020/12/10 06:16:25;;;;;;;15.32;11.30;;;;;;;;;;5126818;27;20023;-61
2020/12/10 06:19:03;;;;;;;14.88;11.13;;;;;;;;;;5125261;27;20102;-61
2020/12/10 06:21:42;;;;;;;16.15;11.88;;;;;;;;;;5122396;27;20114;-62
2020/12/10 06:24:26;;;;;;;14.73;11.25;;;;;;;;;;5117917;27;20080;-61
2020/12/10 06:26:52;;;;;;;12.40;9.85;;;;;;;;;;5113995;27;20034;-61
2020/12/10 06:29:18;;;;;;;13.77;11.13;;;;;;;;;;5122353;27;20035;-61
2020/12/10 06:32:02;;;;;;;15.10;11.65;;;;;;;;;;5130557;27;20023;-61
2020/12/10 06:34:37;;;;;;;16.23;11.90;;;;;;;;;;5121596;27;20047;-62
2020/12/10 06:37:16;;;;;;;15.27;11.73;;;;;;;;;;5130415;27;20031;-61
2020/12/10 06:39:42;;;;;;;17.10;12.80;;;;;;;;;;5121321;27;20518;-61
2020/12/10 06:42:09;;;;;;;16.67;11.80;;;;;;;;;;5127746;27;20029;-61
2020/12/10 06:44:37;;;;;;;15.13;12.85;;;;;;;;;;5122429;27;20042;-61
2020/12/10 06:47:03;;;;;;;14.70;11.57;;;;;;;;;;5131740;27;20374;-61
2020/12/10 06:49:33;;;;;;;14.70;11.55;;;;;;;;;;5123913;27;20042;-61
2020/12/10 06:52:15;;;;;;;19.80;12.97;;;;;;;;;;5123810;27;20023;-62
2020/12/10 06:55:00;;;;;;;17.00;13.02;;;;;;;;;;5126455;27;20087;-61
2020/12/10 06:57:26;;;;;;;13.95;11.38;;;;;;;;;;5124496;27;20045;-62
2020/12/10 06:59:53;;;;;;;15.63;12.20;;;;;;;;;;5122001;27;20104;-61
2020/12/10 07:02:22;;;;;;;14.63;11.32;;;;;;;;;;5119587;27;20087;-61
2020/12/10 07:04:51;;;;;;;12.50;10.35;;;;;;;;;;5128526;27;20019;-62
2020/12/10 07:07:21;;;;;;;13.52;10.30;;;;;;;;;;5107253;27;20033;-61
2020/12/10 07:09:51;;;;;;;14.65;11.73;;;;;;;;;;5119294;27;20114;-61
2020/12/10 07:12:26;;;;;;;18.10;13.13;;;;;;;;;;5122038;27;20652;-62
2020/12/10 07:14:51;;;;;;;;;;;;;;;;;;5129746;27;20031;-61
2020/12/10 07:17:18;;;;;;;18.33;13.07;;;;;;;;;;5134438;27;20375;-61
2020/12/10 07:19:44;;;;;;;22.00;14.57;;;;;;;;;;5126147;27;20023;-61
2020/12/10 07:22:10;;;;;;;21.58;16.33;;;;;;;;;;5120186;27;20047;-61
2020/12/10 07:24:36;;;;;;;21.67;15.55;;;;;;;;;;5127939;27;20034;-62
2020/12/10 07:27:03;;;;;;;20.67;15.90;;;;;;;;;;5118007;27;20031;-62
2020/12/10 07:29:29;;;;;;;21.92;15.55;;;;;;;;;;5123395;27;20043;-62
2020/12/10 07:31:56;;;;;;;24.45;16.38;;;;;;;;;;5122733;27;20076;-61
2020/12/10 07:34:22;;;;;;;22.80;17.30;;;;;;;;;;5119003;27;20042;-61
2020/12/10 07:36:49;;;;;;;21.70;16.23;;;;;;;;;;5118295;27;20019;-61
2020/12/10 07:39:26;;;;;;;21.95;15.68;;;;;;;;;;5123929;27;20028;-62
2020/12/10 07:41:52;;;;;;;23.73;17.40;;;;;;;;;;5109350;27;20485;-62
2020/12/10 07:44:24;;;;;;;22.25;16.27;;;;;;;;;;5120795;27;20066;-61
2020/12/10 07:46:51;;;;;;;24.55;17.30;;;;;;;;;;5104891;27;20035;-62
2020/12/10 07:49:24;;;;;;;21.88;15.70;;;;;;;;;;5130066;27;20092;-62
2020/12/10 07:51:50;;;;;;;21.98;16.13;;;;;;;;;;5119074;27;20098;-62
2020/12/10 07:54:16;;;;;;;24.20;16.90;;;;;;;;;;5106416;27;20393;-61
2020/12/10 07:56:44;;;;;;;21.35;16.77;;;;;;;;;;5124536;27;20472;-61
2020/12/10 07:59:11;;;;;;;22.27;16.73;;;;;;;;;;5117271;27;20027;-61
2020/12/10 08:01:48;;;;;;;19.50;16.10;;;;;;;;;;5123355;27;20041;-61
2020/12/10 08:04:14;;;;;;;19.83;15.27;;;;;;;;;;5119249;27;20023;-61
2020/12/10 08:06:44;;;;;;;20.35;15.57;;;;;;;;;;5129096;27;20017;-61
2020/12/10 08:09:11;;;;;;;16.88;14.20;;;;;;;;;;5116723;27;20468;-61
2020/12/10 08:11:48;;;;;;;19.17;14.15;;;;;;;;;;5122451;27;20028;-61
2020/12/10 08:14:14;;;;;;;17.27;13.57;;;;;;;;;;5114788;27;20032;-62
2020/12/10 08:16:41;;;;;;;18.00;13.65;;;;;;;;;;5130454;27;20026;-62
2020/12/10 08:19:27;;;;;;;19.52;14.32;;;;;;;;;;5114422;27;20028;-61
2020/12/10 08:21:53;;;;;;;16.92;13.85;;;;;;;;;;5120185;27;20030;-61
2020/12/10 08:24:39;;;;;;;17.35;13.82;;;;;;;;;;5125050;27;20112;-61
2020/12/10 08:27:06;;;;;;;17.25;13.43;;;;;;;;;;5124627;27;21838;-62
2020/12/10 08:29:32;;;;;;;18.77;14.73;;;;;;;;;;5119094;27;20027;-62
2020/12/10 08:32:16;;;;;;;19.48;14.43;;;;;;;;;;5124435;27;20027;-62
2020/12/10 08:34:43;;;;;;;16.67;12.60;;;;;;;;;;5119335;27;20102;-63
2020/12/10 08:37:10;;;;;;;16.63;13.00;;;;;;;;;;5122848;27;20072;-63
2020/12/10 08:39:37;;;;;;;18.48;13.32;;;;;;;;;;5119462;27;20026;-62
2020/12/10 08:42:04;;;;;;;17.58;13.63;;;;;;;;;;5119166;27;20032;-62
2020/12/10 08:44:50;;;;;;;17.45;13.85;;;;;;;;;;5116023;27;20011;-63
2020/12/10 08:47:26;;;;;;;19.83;13.15;;;;;;;;;;5121683;27;20027;-62
2020/12/10 08:50:22;;;;;;;15.63;12.43;;;;;;;;;;5122031;27;20062;-62
2020/12/10 08:52:49;;;;;;;17.38;13.23;;;;;;;;;;5125627;27;20015;-63
2020/12/10 08:55:15;;;;;;;18.77;13.40;;;;;;;;;;5121746;27;20031;-63
2020/12/10 08:58:00;;;;;;;17.90;12.57;;;;;;;;;;5118119;27;20083;-62
2020/12/10 09:00:26;;;;;;;17.30;13.20;;;;;;;;;;5095290;28;20044;-63
2020/12/10 09:02:52;;;;;;;16.70;13.45;;;;;;;;;;5098594;28;20112;-61
2020/12/10 09:05:18;;;;;;;16.83;13.63;;;;;;;;;;5094033;27;20116;-61
2020/12/10 09:07:44;;;;;;;20.08;15.27;;;;;;;;;;5093102;27;20036;-61
2020/12/10 09:10:10;;;;;;;15.63;12.50;;;;;;;;;;5094815;28;20548;-60
2020/12/10 09:12:36;;;;;;;15.77;12.43;;;;;;;;;;5091842;28;20401;-60
2020/12/10 09:15:03;;;;;;;16.35;12.80;;;;;;;;;;5093855;28;20050;-60
2020/12/10 09:17:29;;;;;;;20.17;14.30;;;;;;;;;;5092951;27;20031;-60
2020/12/10 09:19:55;;;;;;;21.08;14.60;;;;;;;;;;5093474;28;20027;-59
2020/12/10 09:22:21;;;;;;;20.85;14.93;;;;;;;;;;5089524;28;20073;-60
2020/12/10 09:24:47;;;;;;;19.50;13.73;;;;;;;;;;5093047;28;20035;-60
2020/12/10 09:27:20;;;;;;;18.67;11.93;;;;;;;;;;5087498;28;20442;-60
2020/12/10 09:29:47;;;;;;;16.17;11.68;;;;;;;;;;5094266;28;20162;-61
2020/12/10 09:32:13;;;;;;;18.25;13.75;;;;;;;;;;5107416;27;20036;-60
2020/12/10 09:34:39;;;;;;;17.52;13.90;;;;;;;;;;5117196;27;20102;-60
2020/12/10 09:37:05;;;;;;;16.48;12.50;;;;;;;;;;5117070;27;20030;-60
2020/12/10 09:39:33;;;;;;;18.05;13.23;;;;;;;;;;5120835;27;20102;-60
2020/12/10 09:42:00;;;;;;;16.65;12.20;;;;;;;;;;5121336;27;20072;-60
2020/12/10 09:44:26;;;;;;;15.27;11.32;;;;;;;;;;5115621;27;20398;-60
2020/12/10 09:46:52;;;;;;;19.10;13.57;;;;;;;;;;5121989;27;20110;-60
2020/12/10 09:49:18;;;;;;;20.67;14.70;;;;;;;;;;5122245;27;20114;-60
2020/12/10 09:51:51;;;;;;;20.35;14.55;;;;;;;;;;5116333;27;20030;-60
2020/12/10 09:54:39;;;;;;;20.08;15.18;;;;;;;;;;5124824;27;20143;-61
2020/12/10 09:57:10;;;;;;;20.45;14.88;;;;;;;;;;5120161;27;20023;-60
2020/12/10 09:59:38;;;;;;;19.98;14.57;;;;;;;;;;5123114;27;20102;-60
2020/12/10 10:02:04;;;;;;;18.67;14.75;;;;;;;;;;5114702;27;20019;-60
2020/12/10 10:04:30;;;;;;;18.85;15.18;;;;;;;;;;5117041;27;20511;-60
2020/12/10 10:06:57;;;;;;;18.15;14.52;;;;;;;;;;5119750;27;20130;-60
2020/12/10 10:09:25;;;;;;;20.08;12.88;;;;;;;;;;5116216;27;20066;-60
2020/12/10 10:11:52;;;;;;;17.80;13.23;;;;;;;;;;5122410;27;20050;-61
2020/12/10 10:14:18;;;;;;;16.98;12.55;;;;;;;;;;5126416;27;20023;-60
2020/12/10 10:16:44;;;;;;;15.13;12.52;;;;;;;;;;5119495;27;20054;-61
2020/12/10 10:19:10;;;;;;;16.75;12.93;;;;;;;;;;5115887;27;20055;-61
2020/12/10 10:21:36;;;;;;;12.38;8.75;;;;;;;;;;5118307;27;20027;-60
2020/12/10 10:24:36;;;;;;;13.18;9.52;;;;;;;;;;5122787;27;20031;-60
2020/12/10 10:27:02;;;;;;;9.07;7.80;;;;;;;;;;5119553;27;20481;-60
2020/12/10 10:29:28;;;;;;;9.70;7.85;;;;;;;;;;5121054;27;20023;-60
2020/12/10 10:32:07;;;;;;;13.18;10.07;;;;;;;;;;5125650;27;20783;-61
2020/12/10 10:34:33;;;;;;;12.93;9.57;;;;;;;;;;5115968;27;20118;-61
2020/12/10 10:36:59;;;;;;;11.50;8.77;;;;;;;;;;5129371;27;20051;-61
2020/12/10 10:39:25;;;;;;;13.55;8.75;;;;;;;;;;5121706;27;20080;-61
2020/12/10 10:41:51;;;;;;;11.60;9.27;;;;;;;;;;5125167;27;20030;-61
2020/12/10 10:44:17;;;;;;;14.80;9.48;;;;;;;;;;5123149;27;20057;-61
2020/12/10 10:46:43;;;;;;;14.45;9.23;;;;;;;;;;5102166;28;20031;-61
2020/12/10 10:49:10;;;;;;;11.35;8.68;;;;;;;;;;5122165;27;20480;-61
2020/12/10 10:51:36;;;;;;;15.60;9.70;;;;;;;;;;5128919;27;20087;-61
2020/12/10 10:54:02;;;;;;;12.25;9.48;;;;;;;;;;5127733;27;20075;-60
2020/12/10 10:56:28;;;;;;;10.63;9.07;;;;;;;;;;5131473;27;20353;-62
2020/12/10 10:58:54;;;;;;;10.68;9.23;;;;;;;;;;5121675;27;20102;-60
2020/12/10 11:01:27;;;;;;;10.88;8.13;;;;;;;;;;5123617;27;20046;-60
2020/12/10 11:03:53;;;;;;;11.48;7.80;;;;;;;;;;5120689;27;20156;-61
2020/12/10 11:06:19;;;;;;;12.13;7.75;;;;;;;;;;5126571;27;20678;-60
2020/12/10 11:08:45;;;;;;;11.57;7.82;;;;;;;;;;5125735;27;20051;-60
2020/12/10 11:11:11;;;;;;;12.07;9.63;;;;;;;;;;5121785;27;20015;-60
2020/12/10 11:13:37;;;;;;;22.10;15.90;;;;;;;;;;5120588;27;20027;-60
2020/12/10 11:16:03;;;;;;;24.23;17.38;;;;;;;;;;5123484;27;20023;-60
2020/12/10 11:18:29;;;;;;;26.83;17.95;;;;;;;;;;5120242;27;20042;-60
2020/12/10 11:20:55;;;;;;;26.05;19.20;;;;;;;;;;5097532;27;20028;-60
2020/12/10 11:23:21;;;;;;;23.90;18.58;;;;;;;;;;5120611;27;20034;-60
2020/12/10 11:25:47;;;;;;;28.33;20.48;;;;;;;;;;5122518;27;20031;-60
2020/12/10 11:28:13;;;;;;;24.05;19.02;;;;;;;;;;5122468;27;20058;-60
2020/12/10 11:30:39;;;;;;;26.38;20.02;;;;;;;;;;5119832;27;20019;-59
2020/12/10 11:33:05;;;;;;;24.65;19.85;;;;;;;;;;5119236;27;20030;-60
2020/12/10 11:35:31;;;;;;;27.45;20.33;;;;;;;;;;5119693;27;20022;-61
2020/12/10 11:37:57;;;;;;;24.95;19.05;;;;;;;;;;5125570;27;20023;-61
2020/12/10 11:40:24;;;;;;;21.42;19.10;;;;;;;;;;5117170;27;20015;-61
2020/12/10 11:42:51;;;;;;;21.20;18.27;;;;;;;;;;5116934;27;20384;-61
2020/12/10 11:45:17;;;;;;;22.88;18.40;;;;;;;;;;5125492;27;20023;-61
2020/12/10 11:47:45;;;;;;;22.33;17.20;;;;;;;;;;5106010;27;20062;-61
2020/12/10 11:50:18;;;;;;;23.20;17.30;;;;;;;;;;5102283;27;20110;-61
2020/12/10 11:52:45;;;;;;;23.63;17.85;;;;;;;;;;5116199;27;20476;-61
2020/12/10 11:55:11;;;;;;;22.02;18.33;;;;;;;;;;5124120;27;20019;-61
2020/12/10 11:57:37;;;;;;;22.15;17.52;;;;;;;;;;5123650;27;20046;-60
2020/12/10 12:00:04;;;;;;;23.58;17.10;;;;;;;;;;5122846;27;20047;-61
2020/12/10 12:02:30;;;;;;;20.83;18.15;;;;;;;;;;5116107;27;20020;-60
2020/12/10 12:04:56;;;;;;;24.42;17.90;;;;;;;;;;5120082;27;20019;-61
2020/12/10 12:07:23;;;;;;;24.00;18.92;;;;;;;;;;5106413;27;20110;-60
2020/12/10 12:09:49;;;;;;;20.05;17.88;;;;;;;;;;5120535;27;20091;-61
2020/12/10 12:12:15;;;;;;;21.67;17.67;;;;;;;;;;5117881;27;20125;-61
2020/12/10 12:14:41;;;;;;;21.38;17.65;;;;;;;;;;5122681;27;20041;-61
2020/12/10 12:17:07;;;;;;;25.20;17.98;;;;;;;;;;5119337;27;20517;-60
2020/12/10 12:19:33;;;;;;;23.83;18.52;;;;;;;;;;5121899;27;20106;-61
2020/12/10 12:22:01;;;;;;;24.15;18.67;;;;;;;;;;5122341;27;20953;-61
2020/12/10 12:24:27;;;;;;;23.13;18.50;;;;;;;;;;5115770;27;20118;-61
2020/12/10 12:26:53;;;;;;;20.55;17.90;;;;;;;;;;5122915;27;20031;-60
2020/12/10 12:29:19;;;;;;;21.60;17.60;;;;;;;;;;5117520;27;20031;-61
2020/12/10 12:31:45;;;;;;;24.58;18.42;;;;;;;;;;5124224;27;20080;-61
2020/12/10 12:34:11;;;;;;;23.02;19.05;;;;;;;;;;5117121;27;20024;-61
2020/12/10 12:36:37;;;;;;;24.02;18.90;;;;;;;;;;5119586;27;20054;-61
2020/12/10 12:39:04;;;;;;;22.00;18.38;;;;;;;;;;5119695;27;20496;-60
2020/12/10 12:41:31;;;;;;;21.48;18.10;;;;;;;;;;5122552;27;20055;-61
2020/12/10 12:43:57;;;;;;;25.85;20.02;;;;;;;;;;5121024;27;20476;-61
2020/12/10 12:46:23;;;;;;;24.25;19.20;;;;;;;;;;5121778;27;20032;-61
2020/12/10 12:48:50;;;;;;;25.40;20.35;;;;;;;;;;5099378;27;20046;-60
2020/12/10 12:51:16;;;;;;;27.30;20.58;;;;;;;;;;5125114;27;20031;-61
2020/12/10 12:53:42;;;;;;;26.27;19.83;;;;;;;;;;5117680;27;20040;-60
2020/12/10 12:56:08;;;;;;;25.60;20.65;;;;;;;;;;5120451;27;20028;-60
2020/12/10 12:58:34;;;;;;;24.35;19.63;;;;;;;;;;5124673;27;20026;-60
2020/12/10 13:01:01;;;;;;;23.23;19.67;;;;;;;;;;5117444;27;20103;-60
2020/12/10 13:03:27;;;;;;;24.52;19.77;;;;;;;;;;5119681;27;20080;-60
2020/12/10 13:05:53;;;;;;;25.80;20.00;;;;;;;;;;5118403;27;20404;-60
2020/12/10 13:08:22;;;;;;;27.63;21.00;;;;;;;;;;5121965;27;20038;-60
2020/12/10 13:10:48;;;;;;;30.77;21.35;;;;;;;;;;5099399;27;20687;-60
2020/12/10 13:13:15;;;;;;;29.75;22.65;;;;;;;;;;5103445;27;20122;-60
2020/12/10 13:15:41;;;;;;;28.92;21.63;;;;;;;;;;5116197;27;20906;-59
2020/12/10 13:18:10;;;;;;;26.27;20.92;;;;;;;;;;5116166;27;20411;-60
2020/12/10 13:20:37;;;;;;;28.95;22.20;;;;;;;;;;5099886;27;20019;-61
2020/12/10 13:23:03;;;;;;;27.60;21.80;;;;;;;;;;5125438;27;20098;-60
2020/12/10 13:25:29;;;;;;;27.73;21.90;;;;;;;;;;5105923;27;20123;-61
2020/12/10 13:27:56;;;;;;;26.15;20.77;;;;;;;;;;5121167;27;20039;-61
2020/12/10 13:30:23;;;;;;;26.25;20.50;;;;;;;;;;5120504;27;20029;-61
2020/12/10 13:32:49;;;;;;;28.20;21.00;;;;;;;;;;5121705;27;20505;-61
2020/12/10 13:35:15;;;;;;;24.52;19.27;;;;;;;;;;5118512;27;20125;-60
2020/12/10 13:37:42;;;;;;;23.67;19.35;;;;;;;;;;5120526;27;20118;-61
2020/12/10 13:40:08;;;;;;;25.00;20.20;;;;;;;;;;5121604;27;20038;-61
2020/12/10 13:42:36;;;;;;;24.73;19.88;;;;;;;;;;5121360;27;20034;-60
2020/12/10 13:45:02;;;;;;;22.77;18.42;;;;;;;;;;5106261;27;20028;-61
2020/12/10 13:47:31;;;;;;;21.83;18.90;;;;;;;;;;5117136;27;20027;-60
2020/12/10 13:49:58;;;;;;;26.02;20.52;;;;;;;;;;5116541;27;20037;-60
2020/12/10 13:52:25;;;;;;;25.63;21.15;;;;;;;;;;5116476;27;20026;-60
2020/12/10 13:54:51;;;;;;;27.92;21.02;;;;;;;;;;5122915;27;20399;-60
2020/12/10 13:57:17;;;;;;;27.73;21.42;;;;;;;;;;5101099;27;20051;-60
2020/12/10 13:59:43;;;;;;;26.60;20.58;;;;;;;;;;5123245;27;20122;-60
2020/12/10 14:02:09;;;;;;;27.40;21.80;;;;;;;;;;5105701;28;20028;-59
2020/12/10 14:04:35;;;;;;;26.50;21.30;;;;;;;;;;5122380;27;20100;-60
2020/12/10 14:07:02;;;;;;;24.52;20.58;;;;;;;;;;5116558;27;20028;-60
2020/12/10 14:09:28;;;;;;;27.27;20.83;;;;;;;;;;5123385;27;20031;-60
2020/12/10 14:11:57;;;;;;;25.13;20.75;;;;;;;;;;5124043;27;20038;-61
2020/12/10 14:14:23;;;;;;;25.08;19.42;;;;;;;;;;5122823;27;20023;-60
2020/12/10 14:16:49;;;;;;;23.85;18.45;;;;;;;;;;5121840;27;20110;-60
2020/12/10 14:19:15;;;;;;;26.00;17.85;;;;;;;;;;5125482;27;20433;-60
2020/12/10 14:21:41;;;;;;;26.83;19.00;;;;;;;;;;5106978;27;20027;-61
2020/12/10 14:24:07;;;;;;;21.00;16.60;;;;;;;;;;5099846;27;20023;-61
2020/12/10 14:26:34;;;;;;;23.20;16.90;;;;;;;;;;5108596;27;20027;-61
2020/12/10 14:29:00;;;;;;;21.17;16.90;;;;;;;;;;5122320;27;20039;-61
2020/12/10 14:31:27;;;;;;;21.77;16.75;;;;;;;;;;5127326;27;20516;-61